createdAt,value
2018-07-06T00:01:23.435Z,19.80
2018-07-06T00:04:02.821Z,19.70
2018-07-06T00:06:42.527Z,19.70
2018-07-06T00:09:22.134Z,19.70
2018-07-06T00:12:01.773Z,19.70
2018-07-06T00:14:42.765Z,19.60
2018-07-06T00:17:22.354Z,19.60
2018-07-06T00:20:01.906Z,19.70
2018-07-06T00:22:41.496Z,19.70
2018-07-06T00:25:21.069Z,19.70
2018-07-06T00:28:00.792Z,19.80
2018-07-06T00:30:41.661Z,19.80
2018-07-06T00:33:21.539Z,19.80
2018-07-06T00:36:01.286Z,19.70
2018-07-06T00:38:41.020Z,19.60
2018-07-06T00:41:20.706Z,19.60
2018-07-06T00:44:01.524Z,19.50
2018-07-06T00:46:41.287Z,19.50
2018-07-06T00:49:21.001Z,19.40
2018-07-06T00:52:00.632Z,19.30
2018-07-06T00:57:14.040Z,19.10
2018-07-06T00:59:53.642Z,19.00
2018-07-06T01:02:33.252Z,19.00
2018-07-06T01:05:12.986Z,19.00
2018-07-06T01:07:52.544Z,19.00
2018-07-06T01:10:32.237Z,18.90
2018-07-06T01:13:11.892Z,18.80
2018-07-06T01:15:51.562Z,18.80
2018-07-06T01:21:05.028Z,18.70
2018-07-06T01:23:44.850Z,18.70
2018-07-06T01:26:24.488Z,18.60
2018-07-06T01:29:04.132Z,18.60
2018-07-06T01:31:43.814Z,18.50
2018-07-06T01:34:23.826Z,18.50
2018-07-06T01:37:03.722Z,18.50
2018-07-06T01:39:43.178Z,18.50
2018-07-06T01:42:22.826Z,18.60
2018-07-06T01:47:37.950Z,18.60
2018-07-06T01:50:17.625Z,18.50
2018-07-06T01:52:57.273Z,18.50
2018-07-06T01:55:37.068Z,18.50
2018-07-06T01:58:16.824Z,18.40
2018-07-06T02:00:57.654Z,18.50
2018-07-06T02:03:37.421Z,18.50
2018-07-06T02:06:18.337Z,18.50
2018-07-06T02:08:58.766Z,18.50
2018-07-06T02:11:39.673Z,18.40
2018-07-06T02:14:19.171Z,18.40
2018-07-06T02:16:59.001Z,18.40
2018-07-06T02:19:38.701Z,18.30
2018-07-06T02:24:52.107Z,18.30
2018-07-06T02:27:32.219Z,18.20
2018-07-06T02:30:14.591Z,18.20
2018-07-06T02:32:54.366Z,18.10
2018-07-06T02:35:34.382Z,18.10
2018-07-06T02:40:47.420Z,18.10
2018-07-06T02:43:27.195Z,18.10
2018-07-06T02:46:06.877Z,18.10
2018-07-06T02:48:46.636Z,18.10
2018-07-06T02:51:26.236Z,18.10
2018-07-06T02:54:05.837Z,18.10
2018-07-06T02:56:45.550Z,18.10
2018-07-06T02:59:25.091Z,18.10
2018-07-06T03:02:04.732Z,18.10
2018-07-06T03:04:44.423Z,18.10
2018-07-06T03:07:24.113Z,18.10
2018-07-06T03:10:03.875Z,18.10
2018-07-06T03:12:43.871Z,18.10
2018-07-06T03:15:26.049Z,18.10
2018-07-06T03:20:39.384Z,18.10
2018-07-06T03:23:19.040Z,18.10
2018-07-06T03:25:59.755Z,18.10
2018-07-06T03:28:39.727Z,18.10
2018-07-06T03:31:19.276Z,18.20
2018-07-06T03:33:59.352Z,18.20
2018-07-06T03:36:40.731Z,18.20
2018-07-06T03:39:21.105Z,18.10
2018-07-06T03:42:01.827Z,18.10
2018-07-06T03:44:41.427Z,18.20
2018-07-06T03:47:21.081Z,18.20
2018-07-06T03:50:00.663Z,18.30
2018-07-06T03:52:40.427Z,18.30
2018-07-06T03:55:21.792Z,18.40
2018-07-06T03:58:03.506Z,18.50
2018-07-06T04:00:43.626Z,18.50
2018-07-06T04:03:23.469Z,18.50
2018-07-06T04:06:03.415Z,18.50
2018-07-06T04:08:43.155Z,18.60
2018-07-06T04:11:23.033Z,18.60
2018-07-06T04:14:03.837Z,18.60
2018-07-06T04:19:17.412Z,18.70
2018-07-06T04:21:57.043Z,18.70
2018-07-06T04:24:36.658Z,18.70
2018-07-06T04:27:16.538Z,18.80
2018-07-06T04:29:57.102Z,18.70
2018-07-06T04:32:36.929Z,18.70
2018-07-06T04:35:16.590Z,18.70
2018-07-06T04:37:56.438Z,18.70
2018-07-06T04:40:36.255Z,18.60
2018-07-06T04:43:15.989Z,18.60
2018-07-06T04:45:55.825Z,18.60
2018-07-06T04:48:35.640Z,18.60
2018-07-06T04:51:15.270Z,18.60
2018-07-06T04:53:55.490Z,18.60
2018-07-06T04:59:08.894Z,18.60
2018-07-06T05:01:48.951Z,18.60
2018-07-06T05:04:30.178Z,18.60
2018-07-06T05:07:09.889Z,18.60
2018-07-06T05:09:49.602Z,18.50
2018-07-06T05:12:29.401Z,18.50
2018-07-06T05:15:09.053Z,18.60
2018-07-06T05:17:49.914Z,18.60
2018-07-06T05:20:29.488Z,18.70
2018-07-06T05:23:09.350Z,18.70
2018-07-06T05:25:49.259Z,18.80
2018-07-06T05:28:29.550Z,18.70
2018-07-06T05:31:09.292Z,18.80
2018-07-06T05:33:48.931Z,18.70
2018-07-06T05:36:28.459Z,18.70
2018-07-06T05:39:08.311Z,18.70
2018-07-06T05:41:48.000Z,18.80
2018-07-06T05:44:27.836Z,18.80
2018-07-06T05:47:07.587Z,18.80
2018-07-06T05:49:47.313Z,18.80
2018-07-06T05:52:26.975Z,18.80
2018-07-06T05:55:06.765Z,18.80
2018-07-06T05:57:46.585Z,18.90
2018-07-06T06:00:26.755Z,19.00
2018-07-06T06:03:06.385Z,19.00
2018-07-06T06:05:46.482Z,18.90
2018-07-06T06:08:13.726Z,18.90
2018-07-06T06:10:42.113Z,18.90
2018-07-06T06:13:10.235Z,19.00
2018-07-06T06:15:38.553Z,19.10
2018-07-06T06:18:06.939Z,19.10
2018-07-06T06:20:35.335Z,19.10
2018-07-06T06:23:03.575Z,19.10
2018-07-06T06:25:31.716Z,19.10
2018-07-06T06:27:59.898Z,19.10
2018-07-06T06:30:28.010Z,19.10
2018-07-06T06:32:56.163Z,19.20
2018-07-06T06:35:24.750Z,19.20
2018-07-06T06:37:52.886Z,19.20
2018-07-06T06:40:22.294Z,19.30
2018-07-06T06:42:50.526Z,19.40
2018-07-06T06:45:19.456Z,19.50
2018-07-06T06:50:16.046Z,19.50
2018-07-06T06:52:44.225Z,19.50
2018-07-06T06:55:12.446Z,19.50
2018-07-06T06:57:40.626Z,19.50
2018-07-06T07:00:09.106Z,19.60
2018-07-06T07:02:37.237Z,19.60
2018-07-06T07:05:05.355Z,19.60
2018-07-06T07:07:33.924Z,19.70
2018-07-06T07:10:02.048Z,19.70
2018-07-06T07:12:30.230Z,19.70
2018-07-06T07:14:58.343Z,19.70
2018-07-06T07:17:26.699Z,19.70
2018-07-06T07:19:55.655Z,19.70
2018-07-06T07:22:23.920Z,19.60
2018-07-06T07:24:52.086Z,19.50
2018-07-06T07:27:20.507Z,19.50
2018-07-06T07:29:50.552Z,19.50
2018-07-06T07:32:18.824Z,19.60
2018-07-06T07:34:46.930Z,19.70
2018-07-06T07:39:44.223Z,19.80
2018-07-06T07:42:12.500Z,19.90
2018-07-06T07:44:41.801Z,19.90
2018-07-06T07:47:09.986Z,20.10
2018-07-06T07:49:38.931Z,20.10
2018-07-06T07:52:19.290Z,20.10
2018-07-06T07:54:50.843Z,20.10
2018-07-06T07:57:19.327Z,20.20
2018-07-06T07:59:49.198Z,20.40
2018-07-06T08:02:17.518Z,20.50
2018-07-06T08:04:45.998Z,20.60
2018-07-06T08:07:14.130Z,20.70
2018-07-06T08:09:42.952Z,20.70
2018-07-06T08:12:11.672Z,20.80
2018-07-06T08:14:40.496Z,21.10
2018-07-06T08:17:08.767Z,21.40
2018-07-06T08:19:37.145Z,21.70
2018-07-06T08:22:06.435Z,21.90
2018-07-06T08:24:34.621Z,22.00
2018-07-06T08:27:02.833Z,22.00
2018-07-06T08:29:31.091Z,22.00
2018-07-06T08:31:59.471Z,22.00
2018-07-06T08:34:39.215Z,21.80
2018-07-06T08:37:29.337Z,21.80
2018-07-06T08:39:58.338Z,21.90
2018-07-06T08:42:27.957Z,22.00
2018-07-06T08:44:56.902Z,21.90
2018-07-06T08:47:25.442Z,21.70
2018-07-06T08:49:54.438Z,21.80
2018-07-06T08:52:23.831Z,21.90
2018-07-06T08:54:52.619Z,21.90
2018-07-06T08:57:21.773Z,22.00
2018-07-06T08:59:52.127Z,22.00
2018-07-06T09:02:20.463Z,22.00
2018-07-06T09:04:49.505Z,22.00
2018-07-06T09:07:18.253Z,21.90
2018-07-06T09:09:46.589Z,21.90
2018-07-06T09:12:14.763Z,22.10
2018-07-06T09:14:42.844Z,22.20
2018-07-06T09:19:41.310Z,22.20
2018-07-06T09:22:09.503Z,22.00
2018-07-06T09:24:37.645Z,22.10
2018-07-06T09:27:06.989Z,22.20
2018-07-06T09:29:35.283Z,22.40
2018-07-06T09:32:03.579Z,22.40
2018-07-06T09:34:31.697Z,22.50
2018-07-06T09:37:00.525Z,22.70
2018-07-06T09:39:29.755Z,22.80
2018-07-06T09:41:57.961Z,22.80
2018-07-06T09:44:27.278Z,23.00
2018-07-06T09:46:57.836Z,23.10
2018-07-06T09:49:27.705Z,23.00
2018-07-06T09:51:57.821Z,23.00
2018-07-06T09:54:25.936Z,22.90
2018-07-06T09:56:54.284Z,22.80
2018-07-06T09:59:24.420Z,22.80
2018-07-06T10:01:53.200Z,22.60
2018-07-06T10:04:23.316Z,22.50
2018-07-06T10:06:52.275Z,22.50
2018-07-06T10:09:21.582Z,22.50
2018-07-06T10:11:50.450Z,22.40
2018-07-06T10:14:21.046Z,22.30
2018-07-06T10:16:49.151Z,22.30
2018-07-06T10:19:17.330Z,22.40
2018-07-06T10:21:47.907Z,22.60
2018-07-06T10:24:17.040Z,22.50
2018-07-06T10:26:45.424Z,22.40
2018-07-06T10:29:29.213Z,22.20
2018-07-06T10:32:20.226Z,22.00
2018-07-06T10:34:48.762Z,21.90
2018-07-06T10:37:17.644Z,21.90
2018-07-06T10:39:46.200Z,22.00
2018-07-06T10:42:14.492Z,22.00
2018-07-06T10:44:42.676Z,21.90
2018-07-06T10:47:11.484Z,21.80
2018-07-06T10:49:39.582Z,21.70
2018-07-06T10:52:08.506Z,21.60
2018-07-06T10:54:37.763Z,21.50
2018-07-06T10:57:06.252Z,21.50
2018-07-06T10:59:34.450Z,21.60
2018-07-06T11:02:05.567Z,21.70
2018-07-06T11:04:33.856Z,21.70
2018-07-06T11:07:01.970Z,21.70
2018-07-06T11:09:30.121Z,21.80
2018-07-06T11:11:58.314Z,21.80
2018-07-06T11:14:26.633Z,21.70
2018-07-06T11:16:54.829Z,21.70
2018-07-06T11:21:52.795Z,21.80
2018-07-06T11:24:22.003Z,21.80
2018-07-06T11:26:50.620Z,21.80
2018-07-06T11:29:18.818Z,21.80
2018-07-06T11:31:47.034Z,21.80
2018-07-06T11:34:15.352Z,21.80
2018-07-06T11:36:43.478Z,21.70
2018-07-06T11:39:13.274Z,21.70
2018-07-06T11:41:41.715Z,21.80
2018-07-06T11:44:09.798Z,22.00
2018-07-06T11:46:38.076Z,22.30
2018-07-06T11:49:06.276Z,22.60
2018-07-06T11:51:34.497Z,22.80
2018-07-06T11:54:02.647Z,23.00
2018-07-06T11:56:31.733Z,22.90
2018-07-06T11:58:59.910Z,22.80
2018-07-06T12:01:28.249Z,22.60
2018-07-06T12:03:56.511Z,22.50
2018-07-06T12:06:24.600Z,22.40
2018-07-06T12:08:52.944Z,22.30
2018-07-06T12:11:21.081Z,22.20
2018-07-06T12:13:49.329Z,22.20
2018-07-06T12:16:19.767Z,22.10
2018-07-06T12:18:47.956Z,22.20
2018-07-06T12:21:16.207Z,22.30
2018-07-06T12:23:44.474Z,22.50
2018-07-06T12:26:12.639Z,22.50
2018-07-06T12:28:42.341Z,22.50
2018-07-06T12:31:10.482Z,22.40
2018-07-06T12:33:38.676Z,22.40
2018-07-06T12:36:07.847Z,22.50
2018-07-06T12:38:36.052Z,22.60
2018-07-06T12:41:04.509Z,22.90
2018-07-06T12:43:32.665Z,23.00
2018-07-06T12:46:00.823Z,23.00
2018-07-06T12:48:29.083Z,22.90
2018-07-06T12:50:57.321Z,22.70
2018-07-06T12:53:26.806Z,22.60
2018-07-06T12:55:54.903Z,22.50
2018-07-06T12:58:23.058Z,22.40
2018-07-06T13:00:51.152Z,22.50
2018-07-06T13:03:19.246Z,22.60
2018-07-06T13:05:51.384Z,22.70
2018-07-06T13:08:19.530Z,22.90
2018-07-06T13:10:47.638Z,23.10
2018-07-06T13:13:15.808Z,23.00
2018-07-06T13:15:43.906Z,23.20
2018-07-06T13:18:12.032Z,23.40
2018-07-06T13:20:40.202Z,23.50
2018-07-06T13:23:08.316Z,23.60
2018-07-06T13:25:36.444Z,23.60
2018-07-06T13:28:04.790Z,23.60
2018-07-06T13:30:32.891Z,23.60
2018-07-06T13:33:00.989Z,23.70
2018-07-06T13:35:30.048Z,23.70
2018-07-06T13:37:58.119Z,23.70
2018-07-06T13:40:26.270Z,23.70
2018-07-06T13:42:54.505Z,23.70
2018-07-06T13:45:24.260Z,23.80
2018-07-06T13:47:53.126Z,23.90
2018-07-06T13:50:21.350Z,24.00
2018-07-06T13:52:49.475Z,24.10
2018-07-06T13:55:18.232Z,24.30
2018-07-06T13:57:46.546Z,24.30
2018-07-06T14:00:14.801Z,24.20
2018-07-06T14:02:42.927Z,24.20
2018-07-06T14:07:39.521Z,24.20
2018-07-06T14:10:11.200Z,24.20
2018-07-06T14:12:39.994Z,24.30
2018-07-06T14:15:08.160Z,24.20
2018-07-06T14:17:36.299Z,24.00
2018-07-06T14:20:04.716Z,23.80
2018-07-06T14:22:32.835Z,23.80
2018-07-06T14:25:01.028Z,23.80
2018-07-06T14:27:29.186Z,23.60
2018-07-06T14:29:57.357Z,23.50
2018-07-06T14:32:26.118Z,23.50
2018-07-06T14:34:54.275Z,23.50
2018-07-06T14:37:23.196Z,23.50
2018-07-06T14:39:51.540Z,23.50
2018-07-06T14:44:48.104Z,23.30
2018-07-06T14:47:16.409Z,23.30
2018-07-06T14:49:44.510Z,23.40
2018-07-06T14:52:12.694Z,23.60
2018-07-06T14:54:40.955Z,23.80
2018-07-06T14:57:09.203Z,24.00
2018-07-06T14:59:39.117Z,24.10
2018-07-06T15:02:07.302Z,24.30
2018-07-06T15:04:35.417Z,24.30
2018-07-06T15:07:03.541Z,24.30
2018-07-06T15:09:32.473Z,24.30
2018-07-06T15:12:00.703Z,24.20
2018-07-06T15:14:29.329Z,24.10
2018-07-06T15:16:57.661Z,24.00
2018-07-06T15:19:26.013Z,24.00
2018-07-06T15:21:56.341Z,24.00
2018-07-06T15:24:24.952Z,24.10
2018-07-06T15:26:53.358Z,24.20
2018-07-06T15:29:21.976Z,24.10
2018-07-06T15:31:51.735Z,24.20
2018-07-06T15:34:19.900Z,24.20
2018-07-06T15:39:16.732Z,24.20
2018-07-06T15:41:46.155Z,24.20
2018-07-06T15:44:14.347Z,24.20
2018-07-06T15:46:42.461Z,24.20
2018-07-06T15:49:11.220Z,24.20
2018-07-06T15:51:40.197Z,24.30
2018-07-06T15:54:08.605Z,24.40
2018-07-06T15:56:36.721Z,24.50
2018-07-06T15:59:06.443Z,24.60
2018-07-06T16:01:35.610Z,24.60
2018-07-06T16:04:04.286Z,24.50
2018-07-06T16:06:33.651Z,24.50
2018-07-06T16:09:01.735Z,24.50
2018-07-06T16:11:29.902Z,24.50
2018-07-06T16:16:26.388Z,24.50
2018-07-06T16:21:22.462Z,24.50
2018-07-06T16:23:50.580Z,24.60
2018-07-06T16:26:18.765Z,24.60
2018-07-06T16:28:46.876Z,24.30
2018-07-06T16:31:15.099Z,24.00
2018-07-06T16:33:43.399Z,23.90
2018-07-06T16:36:11.635Z,23.90
2018-07-06T16:38:39.825Z,23.80
2018-07-06T16:41:08.385Z,23.70
2018-07-06T16:43:36.541Z,23.70
2018-07-06T16:46:04.739Z,23.80
2018-07-06T16:48:34.694Z,23.70
2018-07-06T16:51:02.887Z,23.80
2018-07-06T16:53:31.041Z,23.80
2018-07-06T16:56:00.544Z,23.80
2018-07-06T16:58:28.793Z,23.70
2018-07-06T17:00:57.063Z,23.60
2018-07-06T17:05:53.387Z,23.50
2018-07-06T17:08:21.694Z,23.40
2018-07-06T17:10:49.976Z,23.40
2018-07-06T17:18:14.084Z,23.30
2018-07-06T17:20:42.203Z,23.30
2018-07-06T17:23:10.452Z,23.30
2018-07-06T17:25:38.594Z,23.30
2018-07-06T17:28:07.074Z,23.30
2018-07-06T17:30:35.180Z,23.30
2018-07-06T17:33:03.343Z,23.30
2018-07-06T17:35:31.592Z,23.30
2018-07-06T17:37:59.976Z,23.20
2018-07-06T17:40:28.204Z,23.20
2018-07-06T17:45:24.408Z,23.20
2018-07-06T17:47:52.550Z,23.20
2018-07-06T17:50:20.745Z,23.20
2018-07-06T17:52:49.000Z,23.20
2018-07-06T17:55:17.198Z,23.20
2018-07-06T17:57:45.324Z,23.10
2018-07-06T18:00:13.519Z,23.10
2018-07-06T18:02:41.722Z,23.10
2018-07-06T18:07:37.814Z,23.10
2018-07-06T18:10:06.133Z,23.10
2018-07-06T18:12:34.252Z,23.00
2018-07-06T18:15:03.912Z,23.10
2018-07-06T18:17:32.547Z,23.00
2018-07-06T18:22:29.020Z,23.00
2018-07-06T18:24:57.790Z,22.90
2018-07-06T18:29:53.976Z,22.90
2018-07-06T18:32:22.129Z,22.80
2018-07-06T18:34:51.208Z,22.80
2018-07-06T18:37:19.352Z,22.80
2018-07-06T18:39:47.486Z,22.70
2018-07-06T18:44:44.744Z,22.60
2018-07-06T18:47:12.864Z,22.60
2018-07-06T18:49:41.034Z,22.50
2018-07-06T18:52:09.140Z,22.50
2018-07-06T18:54:37.531Z,22.40
2018-07-06T18:57:05.620Z,22.30
2018-07-06T18:59:34.033Z,22.30
2018-07-06T19:02:02.242Z,22.20
2018-07-06T19:04:30.454Z,22.20
2018-07-06T19:06:58.898Z,22.10
2018-07-06T19:09:27.029Z,22.00
2018-07-06T19:11:55.283Z,22.00
2018-07-06T19:14:23.418Z,22.00
2018-07-06T19:16:51.629Z,22.00
2018-07-06T19:19:20.019Z,21.90
2018-07-06T19:21:48.160Z,21.90
2018-07-06T19:24:16.279Z,21.90
2018-07-06T19:26:44.610Z,21.80
2018-07-06T19:34:08.660Z,21.60
2018-07-06T19:36:38.029Z,21.50
2018-07-06T19:39:06.387Z,21.40
2018-07-06T19:41:34.676Z,21.40
2018-07-06T19:44:04.513Z,21.40
2018-07-06T19:46:32.692Z,21.30
2018-07-06T19:49:07.415Z,21.20
2018-07-06T19:51:35.745Z,21.20
2018-07-06T19:54:03.859Z,21.10
2018-07-06T19:56:32.053Z,21.10
2018-07-06T19:59:00.979Z,21.00
2018-07-06T20:01:29.214Z,21.00
2018-07-06T20:03:58.421Z,20.90
2018-07-06T20:06:28.167Z,20.90
2018-07-06T20:11:25.627Z,20.80
2018-07-06T20:13:54.017Z,20.80
2018-07-06T20:16:22.217Z,20.70
2018-07-06T20:18:50.364Z,20.70
2018-07-06T20:21:18.663Z,20.70
2018-07-06T20:23:46.830Z,20.70
2018-07-06T20:26:15.005Z,20.60
2018-07-06T20:28:43.147Z,20.60
2018-07-06T20:31:11.260Z,20.50
2018-07-06T20:33:39.360Z,20.50
2018-07-06T20:36:07.470Z,20.40
2018-07-06T20:38:36.554Z,20.40
2018-07-06T20:41:04.722Z,20.30
2018-07-06T20:43:33.067Z,20.20
2018-07-06T20:46:01.188Z,20.20
2018-07-06T20:48:29.333Z,20.10
2018-07-06T20:50:57.795Z,20.10
2018-07-06T20:53:26.108Z,20.00
2018-07-06T20:58:22.234Z,19.90
2018-07-06T21:00:50.350Z,19.90
2018-07-06T21:03:19.358Z,19.80
2018-07-06T21:05:47.492Z,19.70
2018-07-06T21:08:15.743Z,19.70
2018-07-06T21:10:43.850Z,19.70
2018-07-06T21:13:11.998Z,19.60
2018-07-06T21:15:40.200Z,19.50
2018-07-06T21:18:09.294Z,19.40
2018-07-06T21:20:37.459Z,19.40
2018-07-06T21:23:05.780Z,19.30
2018-07-06T21:25:33.910Z,19.30
2018-07-06T21:28:02.162Z,19.20
2018-07-06T21:30:30.542Z,19.10
2018-07-06T21:32:58.779Z,19.10
2018-07-06T21:35:27.197Z,19.00
2018-07-06T21:37:55.397Z,19.00
2018-07-06T21:40:23.639Z,19.00
2018-07-06T21:42:52.028Z,18.90
2018-07-06T21:45:20.260Z,18.90
2018-07-06T21:47:48.518Z,18.90
2018-07-06T21:50:17.448Z,18.90
2018-07-06T21:52:45.748Z,18.80
2018-07-06T21:55:15.150Z,18.70
2018-07-06T21:57:43.394Z,18.60
2018-07-06T22:00:11.923Z,18.60
2018-07-06T22:02:40.138Z,18.50
2018-07-06T22:05:08.449Z,18.50
2018-07-06T22:07:36.773Z,18.50
2018-07-06T22:10:05.103Z,18.50
2018-07-06T22:12:33.389Z,18.40
2018-07-06T22:15:01.535Z,18.40
2018-07-06T22:17:29.702Z,18.40
2018-07-06T22:19:57.890Z,18.30
2018-07-06T22:22:26.296Z,18.30
2018-07-06T22:24:54.550Z,18.20
2018-07-06T22:29:50.842Z,18.10
2018-07-06T22:32:19.242Z,18.10
2018-07-06T22:34:48.012Z,18.00
2018-07-06T22:37:16.287Z,17.90
2018-07-06T22:39:44.569Z,17.90
2018-07-06T22:42:12.806Z,17.80
2018-07-06T22:44:40.974Z,17.80
2018-07-06T22:47:10.217Z,17.80
2018-07-06T22:49:38.424Z,17.80
2018-07-06T22:54:36.408Z,17.70
2018-07-06T22:57:04.574Z,17.60
2018-07-06T22:59:32.683Z,17.50
2018-07-06T23:02:00.875Z,17.40
2018-07-06T23:04:29.051Z,17.40
2018-07-06T23:06:57.247Z,17.40
2018-07-06T23:09:26.019Z,17.30
2018-07-06T23:11:54.621Z,17.30
2018-07-06T23:14:22.955Z,17.30
2018-07-06T23:16:51.079Z,17.20
2018-07-06T23:19:19.365Z,17.20
2018-07-06T23:21:47.580Z,17.20
2018-07-06T23:24:15.736Z,17.10
2018-07-06T23:26:45.206Z,17.00
2018-07-06T23:29:13.391Z,17.00
2018-07-06T23:31:41.538Z,16.90
2018-07-06T23:34:10.144Z,16.90
2018-07-06T23:36:38.764Z,16.80
2018-07-06T23:39:08.527Z,16.80
2018-07-06T23:41:36.677Z,16.70
2018-07-06T23:44:04.795Z,16.70
2018-07-06T23:46:32.971Z,16.60
2018-07-06T23:49:01.263Z,16.60
2018-07-06T23:51:29.689Z,16.50
2018-07-06T23:53:59.306Z,16.50
2018-07-06T23:58:55.333Z,16.40
